createdAt,value
2018-04-13T00:04:18.439Z,9.80
2018-04-13T00:09:13.573Z,9.70
2018-04-13T00:14:08.699Z,9.60
2018-04-13T00:19:03.820Z,9.50
2018-04-13T00:23:58.186Z,9.50
2018-04-13T00:28:52.557Z,9.50
2018-04-13T00:33:46.899Z,9.40
2018-04-13T00:38:41.264Z,9.40
2018-04-13T00:43:35.652Z,9.40
2018-04-13T00:48:30.006Z,9.30
2018-04-13T00:53:30.461Z,9.10
2018-04-13T00:58:25.640Z,9.00
2018-04-13T01:03:20.028Z,9.00
2018-04-13T01:08:14.389Z,9.00
2018-04-13T01:13:09.521Z,8.80
2018-04-13T01:18:04.638Z,8.80
2018-04-13T01:22:59.814Z,8.70
2018-04-13T01:27:54.172Z,8.70
2018-04-13T01:32:48.715Z,8.70
2018-04-13T01:37:43.058Z,8.70
2018-04-13T01:42:38.179Z,8.60
2018-04-13T01:47:33.300Z,8.50
2018-04-13T01:52:28.598Z,8.40
2018-04-13T01:57:22.969Z,8.40
2018-04-13T02:02:17.332Z,8.40
2018-04-13T02:07:12.455Z,8.40
2018-04-13T02:12:07.581Z,8.40
2018-04-13T02:17:02.476Z,8.40
2018-04-13T02:21:56.861Z,8.30
2018-04-13T02:26:51.236Z,8.40
2018-04-13T02:31:45.620Z,8.50
2018-04-13T02:36:39.977Z,8.50
2018-04-13T02:41:34.086Z,8.40
2018-04-13T02:46:29.360Z,8.30
2018-04-13T02:51:23.722Z,8.30
2018-04-13T02:56:18.916Z,8.20
2018-04-13T03:01:13.297Z,8.20
2018-04-13T03:06:07.658Z,8.20
2018-04-13T03:11:01.881Z,8.10
2018-04-13T03:15:56.021Z,8.00
2018-04-13T03:20:51.871Z,7.90
2018-04-13T03:25:46.222Z,7.90
2018-04-13T03:30:40.595Z,7.90
2018-04-13T03:35:35.701Z,7.80
2018-04-13T03:40:30.837Z,7.80
2018-04-13T03:45:25.255Z,7.80
2018-04-13T03:50:19.621Z,7.80
2018-04-13T03:55:14.834Z,7.80
2018-04-13T04:00:09.196Z,7.80
2018-04-13T04:05:03.542Z,7.90
2018-04-13T04:09:58.664Z,7.90
2018-04-13T04:14:53.025Z,7.90
2018-04-13T04:20:04.726Z,8.00
2018-04-13T04:25:16.179Z,8.00
2018-04-13T04:30:10.533Z,8.00
2018-04-13T04:35:04.882Z,8.00
2018-04-13T04:40:00.867Z,7.90
2018-04-13T04:44:55.295Z,8.00
2018-04-13T04:49:49.649Z,8.00
2018-04-13T04:54:44.778Z,8.10
2018-04-13T04:59:39.184Z,8.00
2018-04-13T05:04:33.645Z,8.10
2018-04-13T05:09:28.079Z,8.20
2018-04-13T05:14:23.198Z,8.30
2018-04-13T05:19:17.757Z,8.30
2018-04-13T05:24:12.106Z,8.40
2018-04-13T05:29:07.260Z,8.70
2018-04-13T05:34:01.626Z,8.60
2018-04-13T05:38:56.755Z,9.00
2018-04-13T05:43:51.904Z,9.20
2018-04-13T05:48:46.265Z,9.20
2018-04-13T05:53:41.417Z,9.60
2018-04-13T05:58:35.916Z,9.60
2018-04-13T06:03:30.311Z,9.90
2018-04-13T06:08:25.512Z,10.30
2018-04-13T06:13:20.702Z,10.50
2018-04-13T06:18:15.152Z,10.50
2018-04-13T06:23:09.613Z,10.70
2018-04-13T06:28:03.984Z,10.90
2018-04-13T06:32:58.444Z,11.00
2018-04-13T06:37:53.069Z,11.10
2018-04-13T06:42:47.926Z,11.20
2018-04-13T06:47:42.404Z,11.40
2018-04-13T06:52:37.736Z,12.10
2018-04-13T06:57:32.892Z,12.50
2018-04-13T07:02:27.089Z,12.50
2018-04-13T07:07:21.748Z,13.00
2018-04-13T07:12:16.149Z,13.80
2018-04-13T07:17:12.003Z,15.80
2018-04-13T07:22:07.128Z,16.70
2018-04-13T07:27:02.374Z,16.90
2018-04-13T07:31:57.496Z,17.00
2018-04-13T07:36:51.947Z,17.00
2018-04-13T07:41:46.435Z,17.10
2018-04-13T07:46:40.822Z,17.10
2018-04-13T07:51:35.189Z,17.30
2018-04-13T07:56:30.342Z,17.00
2018-04-13T08:01:24.714Z,17.00
2018-04-13T08:06:19.870Z,17.10
2018-04-13T08:11:14.249Z,17.10
2018-04-13T08:16:08.612Z,17.20
2018-04-13T08:21:03.053Z,17.40
2018-04-13T08:25:57.504Z,18.10
2018-04-13T08:30:51.887Z,18.60
2018-04-13T08:35:46.343Z,18.70
2018-04-13T08:40:42.398Z,18.20
2018-04-13T08:45:37.595Z,17.90
2018-04-13T08:50:32.200Z,17.90
2018-04-13T08:55:27.022Z,17.70
2018-04-13T09:00:21.393Z,17.70
2018-04-13T09:05:15.763Z,17.70
2018-04-13T09:10:10.232Z,17.80
2018-04-13T09:15:04.609Z,18.10
2018-04-13T09:19:58.988Z,18.20
2018-04-13T09:24:53.510Z,18.20
2018-04-13T09:29:48.004Z,18.00
2018-04-13T09:34:42.737Z,18.10
2018-04-13T09:39:37.114Z,18.20
2018-04-13T09:44:31.491Z,18.50
2018-04-13T09:49:25.864Z,18.30
2018-04-13T09:54:20.383Z,18.30
2018-04-13T09:59:15.536Z,18.70
2018-04-13T10:04:13.768Z,18.70
2018-04-13T10:09:08.941Z,18.30
2018-04-13T10:14:03.435Z,18.30
2018-04-13T10:18:58.587Z,17.80
2018-04-13T10:23:53.133Z,17.80
2018-04-13T10:28:47.509Z,17.60
2018-04-13T10:33:41.885Z,17.50
2018-04-13T10:38:37.352Z,17.40
2018-04-13T10:43:31.505Z,17.40
2018-04-13T10:48:25.623Z,17.40
2018-04-13T10:53:20.917Z,17.10
2018-04-13T10:58:15.322Z,17.10
2018-04-13T11:03:10.472Z,17.10
2018-04-13T11:08:05.903Z,17.20
2018-04-13T11:13:00.261Z,17.20
2018-04-13T11:17:55.391Z,17.60
2018-04-13T11:22:50.775Z,17.70
2018-04-13T11:27:45.718Z,17.60
2018-04-13T11:32:41.105Z,17.40
2018-04-13T11:37:35.570Z,17.40
2018-04-13T11:42:29.942Z,17.30
2018-04-13T11:47:24.298Z,17.40
2018-04-13T11:52:18.806Z,17.40
2018-04-13T11:57:13.294Z,17.60
2018-04-13T12:02:07.477Z,17.80
2018-04-13T12:07:02.369Z,18.30
2018-04-13T12:11:56.755Z,18.30
2018-04-13T12:16:51.180Z,18.70
2018-04-13T12:21:46.552Z,19.40
2018-04-13T12:26:41.047Z,19.40
2018-04-13T12:31:35.181Z,19.70
2018-04-13T12:36:29.615Z,19.60
2018-04-13T12:41:24.753Z,19.30
2018-04-13T12:46:19.881Z,19.20
2018-04-13T12:51:14.248Z,19.10
2018-04-13T12:56:08.680Z,19.00
2018-04-13T13:01:03.153Z,18.90
2018-04-13T13:05:57.665Z,18.80
2018-04-13T13:10:52.050Z,19.10
2018-04-13T13:15:46.600Z,19.50
2018-04-13T13:20:41.485Z,20.00
2018-04-13T13:25:35.848Z,20.00
2018-04-13T13:30:30.205Z,20.20
2018-04-13T13:35:25.365Z,20.10
2018-04-13T13:40:19.711Z,20.00
2018-04-13T13:45:14.847Z,19.80
2018-04-13T13:50:09.976Z,19.40
2018-04-13T13:55:05.110Z,19.30
2018-04-13T13:59:59.541Z,19.30
2018-04-13T14:04:53.940Z,19.30
2018-04-13T14:09:48.369Z,19.30
2018-04-13T14:14:42.738Z,19.20
2018-04-13T14:19:38.831Z,19.30
2018-04-13T14:24:33.397Z,19.30
2018-04-13T14:29:27.771Z,19.40
2018-04-13T14:34:22.178Z,19.50
2018-04-13T14:39:16.521Z,19.60
2018-04-13T14:44:11.159Z,19.60
2018-04-13T14:49:05.698Z,19.60
2018-04-13T14:54:02.309Z,19.50
2018-04-13T14:58:57.926Z,19.30
2018-04-13T15:03:52.410Z,19.20
2018-04-13T15:08:46.771Z,19.20
2018-04-13T15:13:41.910Z,18.70
2018-04-13T15:18:37.315Z,18.30
2018-04-13T15:23:32.178Z,18.30
2018-04-13T15:28:27.020Z,18.00
2018-04-13T15:33:21.421Z,17.70
2018-04-13T15:38:15.826Z,17.50
2018-04-13T15:43:10.212Z,17.30
2018-04-13T15:48:04.907Z,17.20
2018-04-13T15:52:59.259Z,17.10
2018-04-13T15:57:54.436Z,17.10
2018-04-13T16:02:48.787Z,17.10
2018-04-13T16:07:43.999Z,16.90
2018-04-13T16:12:38.391Z,16.90
2018-04-13T16:17:33.039Z,16.90
2018-04-13T16:22:27.430Z,16.80
2018-04-13T16:27:22.925Z,16.60
2018-04-13T16:32:17.548Z,16.60
2018-04-13T16:37:11.891Z,16.50
2018-04-13T16:42:06.438Z,16.50
2018-04-13T16:47:00.888Z,16.50
2018-04-13T16:51:55.255Z,16.40
2018-04-13T16:56:49.850Z,16.40
2018-04-13T17:01:44.230Z,16.40
2018-04-13T17:06:38.971Z,16.30
2018-04-13T17:11:33.349Z,16.20
2018-04-13T17:16:27.830Z,16.10
2018-04-13T17:32:15.649Z,16.00
2018-04-13T17:48:13.265Z,15.80
2018-04-13T17:53:17.304Z,15.70
2018-04-13T17:58:11.866Z,15.60
2018-04-13T18:03:06.266Z,15.60
2018-04-13T18:08:00.656Z,15.50
2018-04-13T18:13:02.671Z,15.40
2018-04-13T18:17:57.929Z,15.30
2018-04-13T18:22:52.463Z,15.30
2018-04-13T18:27:50.782Z,15.20
2018-04-13T18:32:45.604Z,15.10
2018-04-13T18:37:41.444Z,15.00
2018-04-13T18:42:36.235Z,14.90
2018-04-13T18:47:32.448Z,14.90
2018-04-13T18:52:27.729Z,14.80
2018-04-13T18:57:22.274Z,14.80
2018-04-13T19:02:17.475Z,14.90
2018-04-13T19:07:11.839Z,14.80
2018-04-13T19:12:06.209Z,14.90
2018-04-13T19:17:00.676Z,14.90
2018-04-13T19:21:55.067Z,14.90
2018-04-13T19:26:49.469Z,14.90
2018-04-13T19:31:43.835Z,14.80
2018-04-13T19:36:38.966Z,14.90
2018-04-13T19:41:33.325Z,14.90
2018-04-13T19:46:27.971Z,14.90
2018-04-13T19:51:23.609Z,14.90
2018-04-13T19:56:18.208Z,14.90
2018-04-13T20:01:13.929Z,14.90
2018-04-13T20:06:09.154Z,14.90
2018-04-13T20:11:04.567Z,14.90
2018-04-13T20:15:59.146Z,14.90
2018-04-13T20:20:53.553Z,15.00
2018-04-13T20:25:48.150Z,15.00
2018-04-13T20:30:42.582Z,15.00
2018-04-13T20:35:38.287Z,14.90
2018-04-13T20:40:32.687Z,14.90
2018-04-13T20:45:27.131Z,14.90
2018-04-13T20:50:21.538Z,14.90
2018-04-13T20:55:16.691Z,14.80
2018-04-13T21:00:10.874Z,14.80
2018-04-13T21:05:06.121Z,14.70
2018-04-13T21:10:00.655Z,14.70
2018-04-13T21:14:55.085Z,14.60
2018-04-13T21:19:49.501Z,14.50
2018-04-13T21:24:44.168Z,14.50
2018-04-13T21:29:38.857Z,14.40
2018-04-13T21:34:33.290Z,14.30
2018-04-13T21:39:27.697Z,14.20
2018-04-13T21:44:22.176Z,14.10
2018-04-13T21:49:16.572Z,13.90
2018-04-13T21:54:11.321Z,13.80
2018-04-13T21:59:05.926Z,13.80
2018-04-13T22:04:00.324Z,13.70
2018-04-13T22:08:54.731Z,13.60
2018-04-13T22:13:49.402Z,13.50
2018-04-13T22:18:43.981Z,13.50
2018-04-13T22:23:39.114Z,13.30
2018-04-13T22:28:34.481Z,13.30
2018-04-13T22:33:28.875Z,13.30
2018-04-13T22:38:23.217Z,13.30
2018-04-13T22:43:17.650Z,13.30
2018-04-13T22:48:12.916Z,13.30
2018-04-13T22:53:07.427Z,13.30
2018-04-13T22:58:02.099Z,13.30
2018-04-13T23:02:56.598Z,13.30
2018-04-13T23:07:51.068Z,13.20
2018-04-13T23:12:46.685Z,13.20
2018-04-13T23:17:41.259Z,13.30
2018-04-13T23:22:39.180Z,13.30
2018-04-13T23:27:33.571Z,13.40
2018-04-13T23:32:28.350Z,13.40
2018-04-13T23:37:22.876Z,13.40
2018-04-13T23:42:17.479Z,13.40
2018-04-13T23:47:11.936Z,13.30
2018-04-13T23:52:06.293Z,13.20
2018-04-13T23:57:00.723Z,13.00
